Time;durP1;ratioP1;P1;durP2;ratioP2;P2;SDS_P1;SDS_P2;PMS_P1;PMS_P2;Temp;Humidity;BMP_temperature;BMP_pressure;BME280_temperature;BME280_humidity;BME280_pressure;Samples;Min_cycle;Max_cycle;Signal;HPM_P1;HPM_P2
2022/07/18 00:02:10;;;;;;;6.72;5.22;;;;;;;18.16;84.26;102447.13;5071661;28;20057;-31
2022/07/18 00:04:38;;;;;;;5.65;4.50;;;;;;;18.15;84.54;102444.63;5070636;28;20468;-31
2022/07/18 00:07:06;;;;;;;6.80;4.70;;;;;;;18.14;84.74;102451.44;5071712;28;20412;-33
2022/07/18 00:09:34;;;;;;;6.75;4.60;;;;;;;18.12;84.88;102454.56;5070599;28;20497;-33
2022/07/18 00:12:05;;;;;;;7.55;5.25;;;;;;;18.13;85.13;102449.75;5071495;28;20120;-32
2022/07/18 00:14:34;;;;;;;6.68;4.63;;;;;;;18.11;85.39;102443.56;5071201;28;20044;-30
2022/07/18 00:17:02;;;;;;;6.70;5.20;;;;;;;18.09;85.68;102443.88;5070911;28;20079;-30
2022/07/18 00:19:30;;;;;;;6.82;4.38;;;;;;;18.08;85.87;102441.34;5070982;28;20490;-32
2022/07/18 00:21:59;;;;;;;6.30;4.57;;;;;;;18.06;86.04;102447.31;5071478;28;20048;-31
2022/07/18 00:24:26;;;;;;;6.88;4.75;;;;;;;18.04;86.47;102438.31;5070178;28;20123;-31
2022/07/18 00:26:54;;;;;;;8.05;5.28;;;;;;;18.03;86.85;102452.75;5071243;28;20041;-32
2022/07/18 00:29:23;;;;;;;7.80;4.78;;;;;;;18.01;87.18;102441.75;5070950;28;20072;-28
2022/07/18 00:31:51;;;;;;;5.47;4.00;;;;;;;17.98;87.46;102447.22;5069712;28;20079;-30
2022/07/18 00:34:19;;;;;;;6.65;4.32;;;;;;;17.95;87.40;102450.66;5070968;28;20125;-32
2022/07/18 00:36:47;;;;;;;7.20;4.82;;;;;;;17.93;87.77;102441.66;5071277;28;20076;-31
2022/07/18 00:39:15;;;;;;;6.55;4.75;;;;;;;17.89;88.07;102439.44;5073168;28;20104;-34
2022/07/18 00:41:46;;;;;;;7.22;4.80;;;;;;;17.86;88.44;102434.41;5075203;28;20048;-33
2022/07/18 00:44:18;;;;;;;12.55;5.28;;;;;;;17.84;88.79;102435.88;5075003;28;20127;-31
2022/07/18 00:46:49;;;;;;;;;;;;;;;17.76;89.98;102430.94;5074249;28;20079;-32
2022/07/18 00:49:17;;;;;;;5.38;4.03;;;;;;;17.70;89.79;102433.00;5075154;28;19967;-34
2022/07/18 00:51:45;;;;;;;5.75;4.50;;;;;;;17.72;89.97;102429.88;5074071;28;20168;-31
2022/07/18 00:54:13;;;;;;;5.88;4.57;;;;;;;17.72;90.15;102418.59;5074986;28;20412;-29
2022/07/18 00:56:42;;;;;;;6.35;4.63;;;;;;;17.70;90.74;102413.25;5074749;28;20076;-34
2022/07/18 00:59:11;;;;;;;7.97;5.70;;;;;;;17.69;91.29;102422.88;5073992;28;20501;-35
2022/07/18 01:01:46;;;;;;;7.60;5.55;;;;;;;17.68;91.85;102417.53;5074183;28;20048;-30
2022/07/18 01:04:18;;;;;;;7.95;5.95;;;;;;;17.66;92.77;102425.47;5074784;28;20048;-29
2022/07/18 01:06:46;;;;;;;;;;;;;;;17.61;94.72;102409.41;5074074;28;20052;-37
2022/07/18 01:09:14;;;;;;;8.98;6.05;;;;;;;17.57;94.07;102414.03;5074758;28;20318;-30
2022/07/18 01:11:44;;;;;;;8.32;6.10;;;;;;;17.61;94.29;102409.41;5074247;28;20071;-32
2022/07/18 01:14:13;;;;;;;7.32;5.57;;;;;;;17.62;95.02;102405.44;5073809;28;20048;-33
2022/07/18 01:16:41;;;;;;;9.07;6.10;;;;;;;17.63;95.14;102412.78;5074299;28;20059;-30
2022/07/18 01:19:10;;;;;;;7.80;5.50;;;;;;;17.63;95.73;102407.13;5074625;28;20040;-30
2022/07/18 01:21:40;;;;;;;9.02;6.20;;;;;;;17.66;96.13;102417.00;5073436;28;20136;-30
2022/07/18 01:24:07;;;;;;;8.27;6.15;;;;;;;17.67;96.81;102413.03;5074472;28;20060;-32
2022/07/18 01:26:37;;;;;;;7.78;5.80;;;;;;;17.66;97.07;102395.25;5073896;28;20123;-32
2022/07/18 01:29:07;;;;;;;9.65;6.05;;;;;;;17.66;97.49;102389.59;5073540;28;20107;-33
2022/07/18 01:31:34;;;;;;;8.35;6.25;;;;;;;17.67;98.02;102391.28;5073979;28;20123;-35
2022/07/18 01:34:03;;;;;;;8.27;5.90;;;;;;;17.69;99.13;102389.00;5073655;28;20562;-34
2022/07/18 01:36:31;;;;;;;8.57;6.50;;;;;;;17.69;99.15;102389.00;5073902;28;20105;-34
2022/07/18 01:39:01;;;;;;;7.70;5.43;;;;;;;17.71;99.40;102397.16;5074104;28;20068;-36
2022/07/18 01:41:29;;;;;;;9.25;6.30;;;;;;;17.70;100.00;102385.03;5072762;28;20132;-36
2022/07/18 01:43:56;;;;;;;7.30;5.10;;;;;;;17.71;99.86;102386.69;5074227;28;20139;-30
2022/07/18 01:46:24;;;;;;;7.80;5.93;;;;;;;17.71;100.00;102385.84;5073955;28;20127;-30
2022/07/18 01:48:52;;;;;;;8.07;6.10;;;;;;;17.70;100.00;102385.03;5072469;28;20053;-35
2022/07/18 01:51:20;;;;;;;8.85;6.30;;;;;;;17.69;100.00;102371.22;5073365;28;20040;-33
2022/07/18 01:53:58;;;;;;;9.32;6.25;;;;;;;17.68;100.00;102370.38;5073618;28;20067;-31
2022/07/18 01:56:27;;;;;;;8.50;5.53;;;;;;;17.67;100.00;102379.16;5073192;28;20084;-31
2022/07/18 01:58:56;;;;;;;10.32;6.88;;;;;;;17.66;100.00;102374.66;5073416;28;20505;-31
2022/07/18 02:01:24;;;;;;;8.15;5.90;;;;;;;17.65;100.00;102372.97;5073757;28;20410;-34
2022/07/18 02:03:52;;;;;;;8.52;5.95;;;;;;;17.62;100.00;102371.56;5072590;28;20503;-30
2022/07/18 02:06:19;;;;;;;9.18;5.82;;;;;;;17.63;100.00;102375.22;5073827;28;20469;-32
2022/07/18 02:08:47;;;;;;;8.13;5.78;;;;;;;17.61;100.00;102381.19;5073096;28;20047;-34
2022/07/18 02:11:15;;;;;;;7.90;5.90;;;;;;;17.60;100.00;102387.97;5073113;28;20049;-29
2022/07/18 02:13:44;;;;;;;9.55;6.32;;;;;;;17.58;100.00;102379.81;5072929;28;20543;-33
2022/07/18 02:16:12;;;;;;;11.40;6.60;;;;;;;17.54;100.00;102381.59;5073044;28;20051;-34
2022/07/18 02:18:40;;;;;;;9.43;5.90;;;;;;;17.52;100.00;102368.94;5072981;28;20037;-31
2022/07/18 02:21:10;;;;;;;9.45;6.20;;;;;;;17.51;100.00;102379.41;5073321;28;20049;-35
2022/07/18 02:23:37;;;;;;;7.70;5.68;;;;;;;17.49;100.00;102381.69;5072405;28;20115;-33
2022/07/18 02:26:06;;;;;;;8.75;6.30;;;;;;;17.49;100.00;102376.03;5073286;28;20083;-32
2022/07/18 02:28:34;;;;;;;7.70;5.68;;;;;;;17.46;100.00;102368.19;5072746;28;20056;-35
2022/07/18 02:31:03;;;;;;;8.38;5.50;;;;;;;17.44;100.00;102369.66;5072401;28;20047;-31
2022/07/18 02:33:33;;;;;;;9.15;5.75;;;;;;;17.43;100.00;102371.63;5072746;28;20040;-34
2022/07/18 02:36:01;;;;;;;7.68;5.68;;;;;;;17.40;100.00;102363.78;5073218;28;20134;-37
2022/07/18 02:38:30;;;;;;;9.95;6.25;;;;;;;17.38;100.00;102354.81;5072051;28;20094;-33
2022/07/18 02:40:57;;;;;;;7.60;5.68;;;;;;;17.37;100.00;102355.13;5072986;28;20059;-38
2022/07/18 02:43:25;;;;;;;9.70;6.50;;;;;;;17.36;100.00;102351.44;5072635;28;20045;-35
2022/07/18 02:45:53;;;;;;;9.75;5.65;;;;;;;17.35;100.00;102349.78;5071978;28;20056;-33
2022/07/18 02:48:22;;;;;;;9.48;6.00;;;;;;;17.37;100.00;102343.81;5072474;28;20056;-31
2022/07/18 02:50:50;;;;;;;9.32;6.07;;;;;;;17.37;100.00;102346.66;5072557;28;20052;-33
2022/07/18 02:53:19;;;;;;;8.35;5.60;;;;;;;17.40;100.00;102354.47;5072009;28;20051;-35
2022/07/18 02:55:47;;;;;;;8.10;5.57;;;;;;;17.40;100.00;102352.47;5072314;28;20055;-33
2022/07/18 02:58:14;;;;;;;8.38;6.25;;;;;;;17.40;100.00;102335.56;5072422;28;20037;-33
2022/07/18 03:00:42;;;;;;;8.07;5.30;;;;;;;17.40;100.00;102326.25;5071199;28;20054;-32
2022/07/18 03:03:10;;;;;;;8.18;5.65;;;;;;;17.37;100.00;102324.91;5072502;28;20513;-38
2022/07/18 03:05:39;;;;;;;10.30;6.25;;;;;;;17.33;100.00;102321.03;5071561;28;20070;-36
2022/07/18 03:08:07;;;;;;;8.73;5.70;;;;;;;17.30;100.00;102330.09;5072332;28;20049;-32
2022/07/18 03:10:35;;;;;;;8.73;5.80;;;;;;;17.30;100.00;102329.25;5071984;28;20050;-37
2022/07/18 03:13:02;;;;;;;8.55;5.22;;;;;;;17.28;100.00;102320.28;5071700;28;20132;-36
2022/07/18 03:15:30;;;;;;;10.27;5.40;;;;;;;17.27;100.00;102324.25;5071596;28;20391;-31
2022/07/18 03:17:58;;;;;;;8.15;5.22;;;;;;;17.26;100.00;102314.94;5072389;28;20062;-30
2022/07/18 03:20:26;;;;;;;9.50;5.80;;;;;;;17.25;100.00;102313.25;5071019;28;20458;-32
2022/07/18 03:22:56;;;;;;;9.80;5.20;;;;;;;17.22;100.00;102302.59;5072075;28;20180;-32
2022/07/18 03:25:24;;;;;;;6.85;4.57;;;;;;;17.19;100.00;102303.19;5071460;28;20139;-29
2022/07/18 03:27:53;;;;;;;8.88;5.38;;;;;;;17.17;99.92;102314.81;5060179;28;20068;-30
2022/07/18 03:30:21;;;;;;;8.95;5.50;;;;;;;17.14;99.90;102321.06;5071692;28;20052;-30
2022/07/18 03:32:49;;;;;;;8.32;5.18;;;;;;;17.13;100.00;102304.44;5070143;28;20695;-32
2022/07/18 03:35:17;;;;;;;8.35;5.93;;;;;;;17.11;99.86;102306.75;5068793;28;20048;-32
2022/07/18 03:37:45;;;;;;;7.30;5.20;;;;;;;17.10;99.98;102307.88;5066509;28;20048;-30
2022/07/18 03:40:14;;;;;;;8.63;5.22;;;;;;;17.08;100.00;102308.19;5071128;28;20054;-34
2022/07/18 03:42:42;;;;;;;7.07;4.88;;;;;;;17.06;100.00;102306.81;5070736;28;20066;-30
2022/07/18 03:45:10;;;;;;;7.85;5.40;;;;;;;17.04;100.00;102309.94;5071893;28;20075;-35
2022/07/18 03:47:38;;;;;;;7.78;5.03;;;;;;;17.06;100.00;102312.47;5070760;28;20377;-32
2022/07/18 03:50:07;;;;;;;8.75;5.32;;;;;;;17.04;100.00;102318.41;5071618;28;20049;-30
2022/07/18 03:52:35;;;;;;;8.52;5.00;;;;;;;17.05;100.00;102322.91;5071497;28;20132;-30
2022/07/18 03:55:03;;;;;;;8.68;5.22;;;;;;;17.04;99.78;102326.88;5070212;28;20048;-33
2022/07/18 03:57:32;;;;;;;7.80;5.22;;;;;;;17.06;99.62;102333.03;5071543;28;20127;-30
2022/07/18 04:00:00;;;;;;;8.30;4.97;;;;;;;17.05;99.55;102330.53;5071765;28;20084;-35
2022/07/18 04:02:39;;;;;;;8.52;4.70;;;;;;;17.06;99.51;102327.41;5070504;28;20044;-31
2022/07/18 04:05:08;;;;;;;6.10;4.38;;;;;;;17.08;99.30;102332.75;5071577;28;20496;-35
2022/07/18 04:07:37;;;;;;;6.28;4.55;;;;;;;17.09;99.26;102320.31;5071899;28;20095;-37
2022/07/18 04:10:07;;;;;;;8.55;4.80;;;;;;;17.11;99.04;102320.84;5070827;28;20045;-31
2022/07/18 04:12:45;;;;;;;7.65;5.07;;;;;;;17.14;98.84;102323.06;5070597;28;20413;-33
2022/07/18 04:15:13;;;;;;;8.63;5.10;;;;;;;17.14;98.48;102323.06;5071645;28;20091;-30
2022/07/18 04:17:41;;;;;;;6.95;4.65;;;;;;;17.16;98.31;102323.59;5070286;28;20515;-29
2022/07/18 04:20:10;;;;;;;8.30;4.93;;;;;;;17.17;97.84;102320.47;5071263;28;20123;-31
2022/07/18 04:22:46;;;;;;;8.45;5.03;;;;;;;17.20;97.71;102325.47;5071043;28;20052;-32
2022/07/18 04:25:14;;;;;;;8.88;5.10;;;;;;;17.21;97.19;102315.00;5071239;28;20428;-35
2022/07/18 04:27:43;;;;;;;7.28;4.40;;;;;;;17.21;96.86;102293.28;5070891;28;20409;-31
2022/07/18 04:30:11;;;;;;;6.00;4.30;;;;;;;17.24;96.62;102294.66;5070643;28;20059;-30
2022/07/18 04:32:39;;;;;;;6.00;4.35;;;;;;;17.27;96.50;102296.84;5070850;28;20123;-30
2022/07/18 04:35:09;;;;;;;7.95;4.93;;;;;;;17.30;96.34;102303.88;5060618;28;20045;-30
2022/07/18 04:37:37;;;;;;;8.15;4.68;;;;;;;17.33;96.17;102306.06;5070177;28;20048;-35
2022/07/18 04:40:06;;;;;;;7.50;4.65;;;;;;;17.34;96.22;102300.13;5070629;28;20051;-32
2022/07/18 04:42:34;;;;;;;7.72;4.55;;;;;;;17.37;96.15;102293.88;5070561;28;20039;-34
2022/07/18 04:45:05;;;;;;;8.73;4.95;;;;;;;17.42;96.16;102292.91;5070330;28;20055;-37
2022/07/18 04:47:33;;;;;;;6.82;4.43;;;;;;;17.41;96.42;102291.25;5070906;28;20498;-31
2022/07/18 04:50:01;;;;;;;6.90;4.90;;;;;;;17.44;96.26;102284.97;5070018;28;20493;-33
2022/07/18 04:52:36;;;;;;;6.88;4.22;;;;;;;17.47;96.06;102288.03;5070290;28;20044;-31
2022/07/18 04:55:05;;;;;;;7.03;4.50;;;;;;;17.48;96.07;102281.22;5070600;28;20054;-31
2022/07/18 04:57:34;;;;;;;6.45;3.90;;;;;;;17.51;95.91;102286.25;5070700;28;20055;-33
2022/07/18 05:00:05;;;;;;;8.45;4.00;;;;;;;17.54;95.81;102279.16;5070100;28;20052;-30
2022/07/18 05:02:33;;;;;;;7.18;4.38;;;;;;;17.54;96.00;102273.50;5071038;28;20131;-31
2022/07/18 05:05:01;;;;;;;7.10;4.53;;;;;;;17.58;95.81;102276.53;5070045;28;20063;-31
2022/07/18 05:07:28;;;;;;;6.53;4.18;;;;;;;17.60;95.74;102277.03;5051160;28;20049;-33
2022/07/18 05:09:56;;;;;;;7.72;4.40;;;;;;;17.61;95.63;102273.91;5069344;28;20079;-34
2022/07/18 05:12:24;;;;;;;7.28;4.70;;;;;;;17.64;95.67;102262.03;5063926;28;20051;-38
2022/07/18 05:14:52;;;;;;;8.43;5.03;;;;;;;17.66;95.61;102268.22;5067971;28;20173;-37
2022/07/18 05:17:30;;;;;;;7.00;4.13;;;;;;;17.68;95.21;102263.09;5070041;28;20087;-31
2022/07/18 05:19:58;;;;;;;7.13;4.43;;;;;;;17.70;94.87;102262.78;5068836;28;20481;-33
2022/07/18 05:22:26;;;;;;;8.43;4.25;;;;;;;17.73;94.49;102265.81;5069273;28;20052;-31
2022/07/18 05:24:53;;;;;;;5.80;3.42;;;;;;;17.77;94.27;102266.03;5070022;28;20497;-31
2022/07/18 05:27:21;;;;;;;7.05;3.72;;;;;;;17.84;93.57;102263.59;5072738;28;20476;-35
2022/07/18 05:29:49;;;;;;;6.78;3.47;;;;;;;17.92;93.02;102279.81;5072931;28;20359;-32
2022/07/18 05:32:17;;;;;;;6.65;4.10;;;;;;;18.00;92.70;102284.72;5073188;28;20520;-32
2022/07/18 05:34:48;;;;;;;6.20;3.63;;;;;;;18.08;92.35;102285.97;5072063;28;20106;-30
2022/07/18 05:37:16;;;;;;;5.85;3.25;;;;;;;18.15;92.06;102294.88;5072856;28;20057;-31
2022/07/18 05:39:44;;;;;;;4.85;3.20;;;;;;;18.21;91.63;102290.78;5072799;28;20054;-30
2022/07/18 05:42:12;;;;;;;6.90;3.63;;;;;;;18.27;91.43;102292.34;5072282;28;20764;-33
2022/07/18 05:44:39;;;;;;;5.22;3.13;;;;;;;18.32;90.80;102292.22;5071636;28;20048;-31
2022/07/18 05:47:07;;;;;;;6.00;3.50;;;;;;;18.39;90.69;102297.44;5071708;28;20041;-31
2022/07/18 05:49:35;;;;;;;6.43;3.75;;;;;;;18.44;90.35;102291.66;5072835;28;20063;-32
2022/07/18 05:52:05;;;;;;;5.45;3.58;;;;;;;18.51;90.05;102280.78;5072774;28;20476;-32
2022/07/18 05:54:33;;;;;;;6.45;3.67;;;;;;;18.57;89.40;102273.84;5072375;28;20060;-32
2022/07/18 05:57:01;;;;;;;6.35;3.60;;;;;;;18.62;89.44;102273.75;5072396;28;20155;-30
2022/07/18 05:59:29;;;;;;;5.25;3.50;;;;;;;18.68;89.13;102280.94;5072659;28;20124;-36
2022/07/18 06:01:57;;;;;;;5.55;3.80;;;;;;;18.76;88.88;102282.19;5071584;28;20139;-29
2022/07/18 06:04:25;;;;;;;5.80;3.03;;;;;;;18.83;88.61;102276.91;5072856;28;20048;-29
2022/07/18 06:06:52;;;;;;;4.30;3.08;;;;;;;18.90;88.07;102272.50;5071682;28;20132;-30
2022/07/18 06:09:21;;;;;;;6.60;3.05;;;;;;;18.99;87.74;102272.53;5071508;28;20123;-31
2022/07/18 06:11:50;;;;;;;6.95;3.80;;;;;;;19.05;86.88;102267.59;5071090;28;20464;-33
2022/07/18 06:14:17;;;;;;;6.40;3.70;;;;;;;19.10;86.65;102270.28;5072217;28;20481;-31
2022/07/18 06:16:45;;;;;;;6.68;3.83;;;;;;;19.16;85.85;102269.00;5071263;28;20044;-31
2022/07/18 06:19:13;;;;;;;5.03;3.03;;;;;;;19.24;85.72;102260.56;5072624;28;20045;-34
2022/07/18 06:21:48;;;;;;;6.63;3.50;;;;;;;19.32;85.42;102264.59;5071810;28;20079;-30
2022/07/18 06:24:16;;;;;;;6.50;3.42;;;;;;;19.39;84.45;102267.78;5071260;28;20493;-33
2022/07/18 06:26:45;;;;;;;6.28;3.65;;;;;;;19.48;83.98;102267.84;5071812;28;20405;-39
2022/07/18 06:29:13;;;;;;;5.95;3.20;;;;;;;19.56;83.60;102262.28;5071144;28;20120;-39
2022/07/18 06:31:40;;;;;;;5.35;3.03;;;;;;;19.66;83.01;102265.97;5072072;28;20041;-38
2022/07/18 06:34:08;;;;;;;6.63;3.15;;;;;;;19.77;81.98;102267.34;5072333;28;20044;-33
2022/07/18 06:36:36;;;;;;;6.78;2.92;;;;;;;19.84;80.88;102264.88;5070064;28;20057;-31
2022/07/18 06:39:09;;;;;;;4.97;3.05;;;;;;;19.91;80.84;102265.22;5071528;28;20486;-31
2022/07/18 06:41:38;;;;;;;5.57;2.80;;;;;;;20.02;80.32;102268.59;5072446;28;20482;-31
2022/07/18 06:44:14;;;;;;;5.80;3.20;;;;;;;20.13;79.45;102269.97;5070707;28;20509;-34
2022/07/18 06:46:42;;;;;;;5.63;3.03;;;;;;;20.35;78.50;102269.84;5072287;28;20052;-30
2022/07/18 06:49:10;;;;;;;5.78;3.00;;;;;;;20.73;76.91;102263.56;5072602;28;20060;-31
2022/07/18 06:51:38;;;;;;;5.05;2.97;;;;;;;21.14;74.38;102274.38;5072293;28;20126;-30
2022/07/18 06:54:05;;;;;;;5.68;2.95;;;;;;;21.60;72.52;102277.25;5072663;28;20047;-37
2022/07/18 06:56:33;;;;;;;5.65;2.85;;;;;;;22.28;71.19;102269.59;5072690;28;20044;-33
2022/07/18 06:59:01;;;;;;;5.40;2.67;;;;;;;22.87;66.72;102274.34;5071618;28;20052;-33
2022/07/18 07:01:30;;;;;;;6.20;3.08;;;;;;;23.36;64.29;102270.50;5072528;28;20139;-33
2022/07/18 07:03:58;;;;;;;8.15;2.75;;;;;;;24.04;61.34;102275.69;5071984;28;20053;-33
2022/07/18 07:06:26;;;;;;;8.02;2.80;;;;;;;24.42;58.35;102274.50;5071831;28;20174;-32
2022/07/18 07:08:54;;;;;;;5.13;2.75;;;;;;;24.47;55.96;102277.09;5071984;28;20371;-43
2022/07/18 07:11:22;;;;;;;5.18;2.80;;;;;;;24.64;56.87;102276.81;5072896;28;20079;-32
2022/07/18 07:13:50;;;;;;;8.95;3.58;;;;;;;25.14;54.13;102266.91;5071016;28;20404;-33
2022/07/18 07:16:18;;;;;;;6.72;2.90;;;;;;;25.37;53.06;102274.53;5072347;28;20391;-31
2022/07/18 07:18:47;;;;;;;4.60;2.35;;;;;;;25.80;52.16;102274.84;5071088;28;20060;-39
2022/07/18 07:21:15;;;;;;;5.82;2.55;;;;;;;26.16;50.94;102268.00;5072117;28;20048;-34
2022/07/18 07:23:57;;;;;;;5.18;2.55;;;;;;;26.71;49.75;102261.13;5071783;28;20079;-32
2022/07/18 07:26:25;;;;;;;6.15;2.95;;;;;;;27.04;46.30;102258.59;5071557;28;20068;-31
2022/07/18 07:28:52;;;;;;;3.75;2.10;;;;;;;27.30;46.06;102251.31;5071553;28;20048;-31
2022/07/18 07:31:20;;;;;;;5.88;2.30;;;;;;;27.91;45.47;102250.38;5072170;28;20079;-39
2022/07/18 07:33:50;;;;;;;4.72;2.17;;;;;;;28.67;43.51;102245.41;5070704;28;20135;-36
2022/07/18 07:36:17;;;;;;;4.53;1.85;;;;;;;29.23;41.81;102255.97;5072251;28;20076;-39
2022/07/18 07:38:45;;;;;;;5.95;2.30;;;;;;;29.80;39.66;102258.19;5071530;28;20043;-38
2022/07/18 07:41:13;;;;;;;4.15;2.13;;;;;;;30.39;38.69;102264.84;5071050;28;20569;-32
2022/07/18 07:43:41;;;;;;;3.88;2.10;;;;;;;30.87;37.45;102261.84;5071550;28;20467;-37
2022/07/18 07:46:10;;;;;;;4.35;1.90;;;;;;;31.43;36.10;102271.94;5071766;28;20406;-33
2022/07/18 07:48:38;;;;;;;3.50;1.75;;;;;;;31.69;35.24;102262.94;5070050;28;20056;-32
2022/07/18 07:51:08;;;;;;;5.28;1.80;;;;;;;31.99;35.51;102262.50;5071805;28;20068;-41
2022/07/18 07:53:35;;;;;;;3.80;1.75;;;;;;;32.29;34.26;102259.22;5071739;28;20068;-35
2022/07/18 07:56:03;;;;;;;3.80;1.50;;;;;;;32.36;33.92;102256.31;5070721;28;20064;-42
2022/07/18 07:58:32;;;;;;;4.55;1.80;;;;;;;32.44;31.25;102257.94;5071490;28;20566;-34
2022/07/18 08:01:00;;;;;;;4.40;1.80;;;;;;;32.41;31.58;102255.06;5070550;28;20076;-39
2022/07/18 08:03:28;;;;;;;4.65;1.50;;;;;;;32.71;31.93;102266.13;5071357;28;20075;-33
2022/07/18 08:05:55;;;;;;;3.78;1.40;;;;;;;33.01;30.83;102268.50;5071324;28;20519;-37
2022/07/18 08:08:25;;;;;;;3.33;1.40;;;;;;;33.10;30.43;102263.91;5070723;28;20075;-33
2022/07/18 08:10:53;;;;;;;4.03;1.63;;;;;;;33.05;30.42;102264.34;5070974;28;20052;-34
2022/07/18 08:13:21;;;;;;;3.30;1.50;;;;;;;32.81;30.16;102263.22;5071504;28;20420;-34
2022/07/18 08:15:49;;;;;;;3.75;1.80;;;;;;;32.57;30.22;102249.66;5070416;28;20036;-33
2022/07/18 08:18:17;;;;;;;4.82;1.80;;;;;;;32.28;30.02;102259.63;5071430;28;20598;-34
2022/07/18 08:20:44;;;;;;;3.70;1.90;;;;;;;32.01;29.88;102257.16;5071044;28;20059;-36
2022/07/18 08:23:12;;;;;;;2.65;1.50;;;;;;;31.81;29.75;102256.75;5070612;28;20060;-33
2022/07/18 08:25:43;;;;;;;5.20;1.92;;;;;;;31.50;29.10;102249.69;5070823;28;20055;-37
2022/07/18 08:28:12;;;;;;;5.43;2.05;;;;;;;31.26;29.09;102252.53;5071557;28;20151;-34
2022/07/18 08:30:40;;;;;;;4.13;2.30;;;;;;;31.18;29.94;102248.78;5070411;28;20044;-33
2022/07/18 08:33:08;;;;;;;4.38;2.13;;;;;;;30.94;29.82;102250.34;5071365;28;20455;-32
2022/07/18 08:35:37;;;;;;;5.68;1.95;;;;;;;30.66;30.23;102250.22;5071161;28;20048;-34
2022/07/18 08:38:05;;;;;;;4.82;2.13;;;;;;;30.33;30.34;102237.66;5070398;28;20048;-32
2022/07/18 08:40:35;;;;;;;5.35;2.00;;;;;;;30.21;30.76;102246.63;5070663;28;20044;-36
2022/07/18 08:43:04;;;;;;;4.53;1.98;;;;;;;29.99;30.32;102239.06;5070339;28;20541;-34
2022/07/18 08:45:52;;;;;;;4.22;2.20;;;;;;;29.89;30.92;102243.50;5071219;28;20049;-38
2022/07/18 08:48:20;;;;;;;5.60;1.98;;;;;;;29.89;30.83;102239.78;5071094;28;20498;-39
2022/07/18 08:50:49;;;;;;;3.83;2.00;;;;;;;29.96;31.20;102242.72;5070065;28;20127;-34
2022/07/18 08:53:19;;;;;;;3.25;1.90;;;;;;;30.18;31.29;102233.03;5068052;28;20055;-42
2022/07/18 08:55:48;;;;;;;3.90;1.90;;;;;;;30.47;30.56;102236.91;5071168;28;20082;-40
2022/07/18 08:58:17;;;;;;;5.28;1.90;;;;;;;30.63;30.44;102236.59;5069074;28;20074;-40
2022/07/18 09:01:05;;;;;;;4.05;1.50;;;;;;;30.57;30.41;102235.38;5074314;28;20522;-40
2022/07/18 09:03:33;;;;;;;4.25;1.42;;;;;;;30.37;30.69;102238.53;5074756;28;20127;-32
2022/07/18 09:06:06;;;;;;;3.45;1.80;;;;;;;30.12;29.83;102231.75;5074182;28;20040;-38
2022/07/18 09:08:35;;;;;;;5.22;1.85;;;;;;;29.71;30.78;102233.88;5074435;28;20063;-42
2022/07/18 09:11:04;;;;;;;4.07;1.95;;;;;;;29.47;30.94;102241.06;5074651;28;20350;-36
2022/07/18 09:13:39;;;;;;;3.53;1.80;;;;;;;29.23;30.93;102236.66;5074474;28;20589;-35
2022/07/18 09:16:10;;;;;;;3.78;1.70;;;;;;;28.98;31.58;102235.53;5058027;28;20052;-32
2022/07/18 09:18:39;;;;;;;3.63;1.90;;;;;;;28.77;31.66;102238.97;5073797;28;20054;-37
2022/07/18 09:21:09;;;;;;;3.25;1.60;;;;;;;28.50;32.55;102225.88;5074468;28;20094;-40
2022/07/18 09:23:39;;;;;;;5.30;1.60;;;;;;;28.44;32.62;102234.00;5074183;28;20474;-39
2022/07/18 09:26:08;;;;;;;5.43;2.20;;;;;;;28.39;32.44;102237.22;5053909;28;20056;-44
2022/07/18 09:28:52;;;;;;;4.28;2.20;;;;;;;28.25;32.04;102234.97;5074140;28;20036;-33
2022/07/18 09:31:46;;;;;;;4.28;1.52;;;;;;;28.20;32.94;102226.69;5057904;28;20075;-37
2022/07/18 09:34:13;;;;;;;5.95;1.75;;;;;;;28.37;32.43;102231.06;5073307;28;20071;-33
2022/07/18 09:36:55;;;;;;;5.47;1.90;;;;;;;28.70;32.15;102236.00;5074056;28;20070;-34
2022/07/18 09:39:23;;;;;;;5.18;1.85;;;;;;;29.03;31.59;102224.53;5073341;28;20076;-38
2022/07/18 09:41:50;;;;;;;4.40;1.60;;;;;;;29.29;30.95;102228.50;5073841;28;20083;-36
2022/07/18 09:44:20;;;;;;;4.35;1.75;;;;;;;29.35;30.87;102221.19;5073905;28;20182;-33
2022/07/18 09:47:01;;;;;;;3.80;1.45;;;;;;;29.37;30.13;102221.63;5053766;28;20057;-34
2022/07/18 09:49:33;;;;;;;4.80;1.60;;;;;;;29.44;30.57;102231.16;5073677;28;20063;-38
2022/07/18 09:52:06;;;;;;;4.20;1.77;;;;;;;29.55;30.55;102234.16;5054768;28;20076;-38
2022/07/18 09:54:42;;;;;;;4.53;1.92;;;;;;;29.82;30.36;102226.97;5069071;28;20052;-38
2022/07/18 09:57:23;;;;;;;3.90;1.58;;;;;;;30.27;30.09;102229.81;5073916;28;20090;-35
2022/07/18 09:59:52;;;;;;;;;;;;;;;30.47;28.54;102237.75;5071419;28;20091;-34
2022/07/18 10:02:20;;;;;;;4.55;1.80;;;;;;;30.86;29.72;102236.31;5053572;28;19921;-36
2022/07/18 10:04:48;;;;;;;4.53;1.70;;;;;;;31.33;29.13;102235.25;5072390;28;20135;-34
2022/07/18 10:07:16;;;;;;;4.22;1.70;;;;;;;31.72;28.29;102229.53;5073650;28;20074;-38
2022/07/18 10:09:45;;;;;;;3.78;1.55;;;;;;;31.83;28.12;102227.47;5072425;28;20048;-33
2022/07/18 10:12:15;;;;;;;2.85;1.70;;;;;;;31.91;27.77;102228.28;5072912;28;20049;-36
2022/07/18 10:14:44;;;;;;;4.57;2.08;;;;;;;32.03;27.51;102227.84;5072499;28;20059;-34
2022/07/18 10:17:14;;;;;;;4.65;1.80;;;;;;;32.18;26.74;102223.69;5073692;28;20135;-41
2022/07/18 10:19:42;;;;;;;5.55;1.80;;;;;;;32.15;27.13;102216.72;5073140;28;20041;-33
2022/07/18 10:22:10;;;;;;;5.03;1.88;;;;;;;32.17;26.41;102224.97;5072818;28;20072;-33
2022/07/18 10:24:40;;;;;;;4.53;1.85;;;;;;;32.33;27.09;102228.25;5072682;28;20079;-37
2022/07/18 10:27:16;;;;;;;4.03;2.03;;;;;;;32.62;25.60;102214.53;5073511;28;20072;-35
2022/07/18 10:30:09;;;;;;;5.20;2.15;;;;;;;32.95;26.32;102213.19;5072096;28;20559;-40
2022/07/18 10:32:39;;;;;;;4.70;1.95;;;;;;;33.15;25.85;102213.47;5073335;28;20067;-34
2022/07/18 10:35:10;;;;;;;3.50;1.70;;;;;;;33.11;25.81;102219.28;5072575;28;20056;-34
2022/07/18 10:37:38;;;;;;;3.33;1.63;;;;;;;33.34;27.11;102209.25;5072833;28;20467;-34
2022/07/18 10:40:28;;;;;;;4.70;1.98;;;;;;;33.63;25.21;102210.66;5072726;28;20079;-42
2022/07/18 10:43:33;;;;;;;3.45;1.88;;;;;;;33.68;24.59;102221.78;5072540;28;20079;-39
2022/07/18 10:46:03;;;;;;;3.30;1.73;;;;;;;33.24;25.80;102213.81;5072481;28;20501;-34
2022/07/18 10:48:51;;;;;;;5.05;2.10;;;;;;;33.14;26.06;102223.41;5073155;28;20052;-38
2022/07/18 10:51:21;;;;;;;4.88;2.20;;;;;;;33.07;26.36;102217.66;5062303;28;20056;-35
2022/07/18 10:54:13;;;;;;;4.22;1.80;;;;;;;33.14;27.17;102212.66;5072799;28;20618;-33
2022/07/18 10:57:07;;;;;;;4.57;1.95;;;;;;;33.17;26.72;102211.78;5053740;28;20060;-36
2022/07/18 10:59:36;;;;;;;5.85;2.30;;;;;;;33.12;26.61;102208.53;5056112;28;20063;-39
2022/07/18 11:02:08;;;;;;;4.20;1.98;;;;;;;33.28;26.61;102202.25;5072203;28;20056;-39
2022/07/18 11:04:40;;;;;;;4.97;1.80;;;;;;;33.65;26.26;102211.06;5071955;28;20075;-34
2022/07/18 11:07:13;;;;;;;4.22;1.77;;;;;;;33.84;25.83;102206.78;5072415;28;20053;-43
2022/07/18 11:09:44;;;;;;;5.38;2.28;;;;;;;33.88;24.96;102208.41;5072417;28;20713;-37
2022/07/18 11:12:26;;;;;;;6.93;1.73;;;;;;;33.61;25.03;102210.25;5071515;28;20044;-33
2022/07/18 11:15:15;;;;;;;3.60;1.92;;;;;;;33.40;23.97;102208.34;5072378;28;20724;-32
2022/07/18 11:18:00;;;;;;;3.58;1.77;;;;;;;33.20;25.99;102210.13;5071746;28;20056;-36
2022/07/18 11:20:37;;;;;;;5.32;2.10;;;;;;;33.15;25.97;102199.84;5072283;28;20123;-32
2022/07/18 11:23:13;;;;;;;4.30;1.70;;;;;;;33.35;25.87;102202.22;5072021;28;20049;-40
2022/07/18 11:25:41;;;;;;;5.68;2.30;;;;;;;33.27;26.06;102201.44;5071692;28;20040;-33
2022/07/18 11:28:28;;;;;;;4.30;1.77;;;;;;;33.40;25.68;102201.75;5069195;28;20059;-34
2022/07/18 11:31:04;;;;;;;4.93;1.83;;;;;;;33.25;26.39;102195.22;5072056;28;20442;-36
2022/07/18 11:33:35;;;;;;;3.50;1.90;;;;;;;33.45;25.95;102195.50;5071068;28;20496;-33
2022/07/18 11:36:06;;;;;;;3.80;1.70;;;;;;;33.88;25.92;102190.19;5071841;28;20489;-36
2022/07/18 11:38:35;;;;;;;3.90;1.60;;;;;;;34.03;26.05;102196.66;5071869;28;20135;-34